Time;durP1;ratioP1;P1;durP2;ratioP2;P2;SDS_P1;SDS_P2;PMS_P1;PMS_P2;Temp;Humidity;BMP_temperature;BMP_pressure;BME280_temperature;BME280_humidity;BME280_pressure;Samples;Min_cycle;Max_cycle;Signal;HPM_P1;HPM_P2
2021/08/23 00:00:13;;;;;;;13.90;10.97;;;;;;;15.87;99.12;101624.06;2106365;28;20024;-61
2021/08/23 00:01:13;;;;;;;12.98;11.38;;;;;;;15.87;98.97;101621.44;2107049;28;20030;-61
2021/08/23 00:02:13;;;;;;;14.83;11.30;;;;;;;15.88;99.10;101625.78;2107105;28;20381;-61
2021/08/23 00:03:14;;;;;;;13.20;11.47;;;;;;;15.87;98.98;101624.06;2107025;28;20591;-61
2021/08/23 00:04:14;;;;;;;11.77;10.57;;;;;;;15.87;98.84;101623.25;2107078;28;20024;-61
2021/08/23 00:05:15;;;;;;;15.10;12.73;;;;;;;15.88;98.90;101632.84;2106064;28;20008;-62
2021/08/23 00:06:15;;;;;;;10.00;9.10;;;;;;;15.88;99.10;101625.78;2098024;28;20082;-61
2021/08/23 00:07:15;;;;;;;13.10;11.87;;;;;;;15.88;98.90;101636.28;2107041;28;20733;-61
2021/08/23 00:08:17;;;;;;;13.80;11.73;;;;;;;15.87;99.08;101624.06;2106920;28;20473;-61
2021/08/23 00:09:19;;;;;;;13.50;12.02;;;;;;;15.87;99.04;101631.97;2106898;28;20031;-60
2021/08/23 00:10:20;;;;;;;16.02;14.32;;;;;;;15.87;99.12;101629.34;2106896;28;20027;-61
2021/08/23 00:11:20;;;;;;;14.83;13.63;;;;;;;15.86;99.09;101632.91;2107040;28;20067;-62
2021/08/23 00:12:21;;;;;;;13.20;12.00;;;;;;;15.88;99.00;101632.84;2106781;28;20500;-61
2021/08/23 00:13:21;;;;;;;15.07;13.55;;;;;;;15.87;98.95;101624.06;2107031;28;20385;-61
2021/08/23 00:14:21;;;;;;;15.50;13.10;;;;;;;15.87;98.89;101637.25;2097967;28;20445;-62
2021/08/23 00:15:22;;;;;;;12.90;11.70;;;;;;;15.86;99.32;101638.19;2097977;28;20075;-61
2021/08/23 00:16:22;;;;;;;12.27;11.10;;;;;;;15.88;98.98;101631.03;2106862;28;20021;-61
2021/08/23 00:17:23;;;;;;;13.73;12.43;;;;;;;15.88;99.18;101630.19;2097859;28;20023;-64
2021/08/23 00:18:23;;;;;;;17.08;15.27;;;;;;;15.86;99.66;101632.91;2097904;28;20095;-61
2021/08/23 00:19:23;;;;;;;13.77;12.48;;;;;;;15.89;99.14;101638.03;2106913;28;20358;-60
2021/08/23 00:20:32;;;;;;;12.70;11.50;;;;;;;15.88;99.22;101640.72;2106764;28;20030;-61
2021/08/23 00:21:41;;;;;;;14.38;12.98;;;;;;;15.88;99.25;101636.28;2106887;28;20081;-60
2021/08/23 00:22:48;;;;;;;13.27;11.98;;;;;;;15.88;99.16;101641.56;2106912;28;20554;-61
2021/08/23 00:23:52;;;;;;;14.15;12.70;;;;;;;15.88;99.41;101644.19;2106857;28;20042;-61
2021/08/23 00:24:52;;;;;;;13.98;12.30;;;;;;;15.89;99.49;101639.78;2106863;28;20505;-61
2021/08/23 00:25:53;;;;;;;14.03;12.73;;;;;;;15.88;99.10;101646.81;2106889;28;20024;-61
2021/08/23 00:26:55;;;;;;;12.35;11.27;;;;;;;15.89;99.27;101640.66;2106881;28;20056;-62
2021/08/23 00:27:55;;;;;;;15.20;12.50;;;;;;;15.89;99.19;101643.28;2106881;28;20043;-62
2021/08/23 00:28:56;;;;;;;18.30;13.03;;;;;;;15.88;99.05;101644.19;2106800;28;20024;-61
2021/08/23 00:29:56;;;;;;;15.20;12.17;;;;;;;15.89;99.21;101645.91;2106844;28;20024;-62
2021/08/23 00:30:57;;;;;;;12.88;11.57;;;;;;;15.89;99.14;101647.69;2106801;28;20035;-62
2021/08/23 00:31:57;;;;;;;13.23;11.10;;;;;;;15.89;99.07;101638.03;2106639;28;20036;-61
2021/08/23 00:32:57;;;;;;;12.90;11.70;;;;;;;15.89;99.14;101645.06;2106816;28;20023;-62
2021/08/23 00:33:58;;;;;;;11.87;10.77;;;;;;;15.89;99.40;101638.03;2106843;28;20087;-62
2021/08/23 00:34:58;;;;;;;12.53;11.33;;;;;;;15.89;99.04;101638.03;2106832;28;20031;-62
2021/08/23 00:35:58;;;;;;;13.30;12.00;;;;;;;15.89;99.10;101643.28;2106941;28;20024;-62
2021/08/23 00:36:58;;;;;;;13.00;11.90;;;;;;;15.90;98.66;101639.72;2106878;28;20134;-61
2021/08/23 00:37:59;;;;;;;13.00;11.63;;;;;;;15.90;99.15;101644.97;2106857;28;20039;-61
2021/08/23 00:38:59;;;;;;;12.73;11.43;;;;;;;15.89;99.25;101645.91;2106760;28;20027;-62
2021/08/23 00:40:00;;;;;;;13.17;11.83;;;;;;;15.89;99.46;101643.28;2106611;28;20035;-61
2021/08/23 00:41:00;;;;;;;;;;;;;;;15.90;99.05;101637.09;2098195;28;20021;-61
2021/08/23 00:42:05;;;;;;;11.90;10.63;;;;;;;15.89;98.94;101640.66;2097843;28;20462;-61
2021/08/23 00:43:06;;;;;;;11.63;10.43;;;;;;;15.90;99.17;101633.59;2106856;28;20106;-62
2021/08/23 00:44:07;;;;;;;13.07;11.77;;;;;;;15.90;99.22;101638.84;2106676;28;20058;-62
2021/08/23 00:45:08;;;;;;;13.30;12.02;;;;;;;15.90;98.89;101644.13;2106807;28;20161;-61
2021/08/23 00:46:08;;;;;;;12.48;11.27;;;;;;;15.90;98.98;101644.97;2106746;28;20099;-61
2021/08/23 00:47:09;;;;;;;14.00;12.63;;;;;;;15.89;99.02;101637.16;2106771;28;20027;-61
2021/08/23 00:48:09;;;;;;;12.18;10.98;;;;;;;15.90;98.96;101644.97;2106710;28;20472;-62
2021/08/23 00:49:09;;;;;;;13.63;12.43;;;;;;;15.89;99.32;101643.28;2106773;28;20127;-62
2021/08/23 00:50:10;;;;;;;13.83;12.33;;;;;;;15.89;99.46;101648.56;2106728;28;20024;-61
2021/08/23 00:51:10;;;;;;;14.07;12.38;;;;;;;15.88;99.37;101641.56;2106824;28;20368;-61
2021/08/23 00:52:11;;;;;;;13.00;11.80;;;;;;;15.89;98.98;101648.56;2106623;28;20036;-60
2021/08/23 00:53:11;;;;;;;13.35;12.15;;;;;;;15.88;99.32;101641.56;2106782;28;20046;-61
2021/08/23 00:54:12;;;;;;;12.80;11.50;;;;;;;15.88;99.47;101641.56;2108426;28;20035;-61
2021/08/23 00:55:12;;;;;;;12.48;11.18;;;;;;;15.88;99.30;101641.56;2108480;28;20076;-61
2021/08/23 00:56:14;;;;;;;9.00;8.27;;;;;;;15.88;99.05;101646.00;2108174;28;20032;-61
2021/08/23 00:57:14;;;;;;;9.35;8.45;;;;;;;15.89;99.49;101643.28;2108452;28;20552;-60
2021/08/23 00:58:19;;;;;;;11.30;10.10;;;;;;;15.87;99.29;101645.13;2099362;28;20028;-61
2021/08/23 00:59:23;;;;;;;11.43;10.32;;;;;;;15.88;98.94;101644.19;2100064;28;20378;-60
2021/08/23 01:00:24;;;;;;;13.50;11.13;;;;;;;15.88;99.49;101643.38;2099423;28;20069;-59
2021/08/23 01:01:27;;;;;;;11.90;10.70;;;;;;;15.86;99.21;101648.69;2099492;28;20020;-60
2021/08/23 01:02:43;;;;;;;11.75;9.82;;;;;;;15.86;99.43;101640.81;2108369;28;20020;-61
2021/08/23 01:03:48;;;;;;;10.30;9.30;;;;;;;15.87;99.32;101655.66;2108338;28;20028;-61
2021/08/23 01:05:07;;;;;;;10.95;9.77;;;;;;;15.86;99.59;101648.69;2099426;28;20032;-60
2021/08/23 01:06:09;;;;;;;12.13;11.05;;;;;;;15.86;99.52;101643.44;2099331;28;20032;-60
2021/08/23 01:07:14;;;;;;;11.35;10.20;;;;;;;15.87;99.18;101649.56;2099663;28;20111;-60
2021/08/23 01:08:31;;;;;;;12.52;11.32;;;;;;;15.86;99.72;101648.69;2108360;28;20028;-61
2021/08/23 01:09:33;;;;;;;12.50;11.32;;;;;;;15.86;99.15;101646.06;2108373;28;20059;-61
2021/08/23 01:10:54;;;;;;;13.88;12.48;;;;;;;15.87;99.22;101653.03;2108386;28;20032;-59
2021/08/23 01:11:56;;;;;;;12.30;11.20;;;;;;;15.87;99.67;101647.75;2108130;28;20060;-61
2021/08/23 01:12:57;;;;;;;10.25;9.35;;;;;;;15.89;99.56;101647.69;2108273;28;20381;-61
2021/08/23 01:13:58;;;;;;;13.95;12.65;;;;;;;15.88;99.30;101646.00;2108231;28;20507;-61
2021/08/23 01:14:59;;;;;;;14.70;13.30;;;;;;;15.89;99.38;101647.69;2108354;28;20027;-61
2021/08/23 01:15:59;;;;;;;13.73;12.43;;;;;;;15.89;99.28;101643.28;2108265;28;20055;-61
2021/08/23 01:17:00;;;;;;;13.30;12.10;;;;;;;15.90;99.71;101650.25;2108321;28;20099;-61
2021/08/23 01:18:02;;;;;;;14.55;13.15;;;;;;;15.92;99.45;101653.66;2108264;28;20027;-61
2021/08/23 01:19:03;;;;;;;12.63;11.32;;;;;;;15.92;99.25;101648.41;2108266;28;20028;-60
2021/08/23 01:20:07;;;;;;;14.90;13.48;;;;;;;15.93;99.52;101654.50;2108214;28;20024;-61
2021/08/23 01:21:09;;;;;;;13.13;11.88;;;;;;;15.94;99.36;101649.16;2108317;28;20020;-61
2021/08/23 01:22:12;;;;;;;15.23;13.82;;;;;;;15.93;99.62;101660.63;2099228;28;20135;-61
2021/08/23 01:23:12;;;;;;;15.23;13.73;;;;;;;15.95;99.49;101660.56;2099542;28;20025;-61
2021/08/23 01:24:13;;;;;;;15.73;14.20;;;;;;;15.95;99.46;101653.50;2108279;28;20445;-61
2021/08/23 01:25:18;;;;;;;17.33;15.63;;;;;;;15.97;99.80;101661.31;2108247;28;20024;-60
2021/08/23 01:26:23;;;;;;;16.15;14.68;;;;;;;15.98;99.29;101659.56;2108232;28;20095;-61
2021/08/23 01:27:26;;;;;;;15.95;14.40;;;;;;;15.99;99.30;101663.88;2108172;28;20095;-61
2021/08/23 01:28:47;;;;;;;17.55;15.85;;;;;;;16.00;99.38;101665.56;2108256;28;20032;-62
2021/08/23 01:29:55;;;;;;;16.10;14.40;;;;;;;16.01;99.70;101672.56;2108186;28;20036;-61
2021/08/23 01:31:14;;;;;;;16.30;14.38;;;;;;;16.02;99.75;101664.59;2108186;28;20499;-61
2021/08/23 01:32:17;;;;;;;14.27;12.95;;;;;;;16.03;99.59;101674.19;2108131;28;20058;-60
2021/08/23 01:33:18;;;;;;;16.27;14.65;;;;;;;16.05;99.57;101672.31;2108096;28;20020;-61
2021/08/23 01:34:20;;;;;;;16.83;15.23;;;;;;;16.06;99.67;101673.16;2108090;28;20354;-61
2021/08/23 01:35:22;;;;;;;15.98;14.35;;;;;;;16.07;99.58;101672.22;2108117;28;20048;-62
2021/08/23 01:36:23;;;;;;;17.15;15.35;;;;;;;16.09;99.35;101676.47;2099152;28;20066;-61
2021/08/23 01:37:24;;;;;;;;;;;;;;;16.11;99.33;101681.66;2099630;28;20424;-60
2021/08/23 01:38:24;;;;;;;16.98;15.02;;;;;;;16.13;99.50;101678.94;2111026;28;19908;-60
2021/08/23 01:39:24;;;;;;;15.83;14.17;;;;;;;16.14;99.49;101670.97;2108147;28;20354;-61
2021/08/23 01:40:24;;;;;;;16.60;14.93;;;;;;;16.14;99.37;101675.38;2107980;28;20027;-61
2021/08/23 01:41:25;;;;;;;17.97;15.77;;;;;;;16.17;99.15;101683.13;2108131;28;20024;-61
2021/08/23 01:42:25;;;;;;;17.30;15.20;;;;;;;16.17;99.79;101678.72;2108132;28;20488;-61
2021/08/23 01:43:26;;;;;;;16.42;14.88;;;;;;;16.18;99.39;101685.66;2108120;28;20384;-61
2021/08/23 01:44:26;;;;;;;18.70;15.68;;;;;;;16.20;99.45;101689.09;2108207;28;20430;-62
2021/08/23 01:45:26;;;;;;;15.80;14.30;;;;;;;16.20;99.36;101690.88;2107934;28;20020;-63
2021/08/23 01:46:30;;;;;;;16.87;15.27;;;;;;;16.21;99.60;101696.06;2108125;28;20020;-61
2021/08/23 01:47:31;;;;;;;17.48;15.88;;;;;;;16.22;99.65;101691.66;2108023;28;20024;-61
2021/08/23 01:48:31;;;;;;;16.23;14.63;;;;;;;16.24;99.86;101694.16;2108078;28;20432;-61
2021/08/23 01:49:32;;;;;;;16.48;14.90;;;;;;;16.22;99.49;101692.47;2108056;28;20051;-61
2021/08/23 01:50:32;;;;;;;15.67;13.60;;;;;;;16.24;99.51;101692.41;2098941;28;20024;-61
2021/08/23 01:51:32;;;;;;;15.57;13.80;;;;;;;16.25;99.93;101690.63;2099083;28;20279;-62
2021/08/23 01:52:33;;;;;;;16.02;14.60;;;;;;;16.25;99.69;101702.00;2108001;28;20027;-61
2021/08/23 01:53:33;;;;;;;16.60;14.90;;;;;;;16.25;99.80;101696.72;2108075;28;20485;-61
2021/08/23 01:54:33;;;;;;;14.90;13.43;;;;;;;16.26;99.47;101698.44;2098928;28;20420;-61
2021/08/23 01:55:34;;;;;;;16.37;14.23;;;;;;;16.26;99.83;101700.22;2099003;28;20074;-60
2021/08/23 01:56:34;;;;;;;15.47;13.97;;;;;;;16.26;99.52;101702.84;2107913;28;20078;-61
2021/08/23 01:57:34;;;;;;;15.02;13.30;;;;;;;16.26;99.50;101703.72;2098863;28;20040;-62
2021/08/23 01:58:34;;;;;;;16.93;15.13;;;;;;;16.26;99.56;101705.50;2099075;28;20112;-60
2021/08/23 01:59:35;;;;;;;14.57;13.17;;;;;;;16.26;99.48;101713.38;2107997;28;20089;-61
2021/08/23 02:00:35;;;;;;;15.37;13.87;;;;;;;16.25;99.96;101709.91;2108023;28;20032;-61
2021/08/23 02:01:35;;;;;;;18.87;14.17;;;;;;;16.27;99.75;101709.81;2108067;28;20028;-61
2021/08/23 02:02:36;;;;;;;15.97;14.43;;;;;;;16.27;99.28;101709.81;2108014;28;20024;-61
2021/08/23 02:03:36;;;;;;;15.40;13.90;;;;;;;16.27;99.56;101717.72;2099004;28;20060;-61
2021/08/23 02:04:36;;;;;;;14.83;13.10;;;;;;;16.26;99.75;101716.03;2098903;28;20028;-61
2021/08/23 02:05:37;;;;;;;16.00;14.40;;;;;;;16.27;99.54;101717.72;2107963;28;20422;-60
2021/08/23 02:06:37;;;;;;;15.83;14.27;;;;;;;16.26;99.77;101719.53;2098922;28;20382;-61
2021/08/23 02:07:37;;;;;;;15.13;13.83;;;;;;;16.26;99.87;101723.94;2098996;28;20500;-61
2021/08/23 02:08:37;;;;;;;16.17;14.60;;;;;;;16.25;99.42;101723.06;2107821;28;20019;-59
2021/08/23 02:09:38;;;;;;;15.43;14.07;;;;;;;16.26;99.74;101730.06;2107873;28;20051;-61
2021/08/23 02:10:39;;;;;;;14.60;13.30;;;;;;;16.25;99.64;101728.31;2107855;28;20028;-61
2021/08/23 02:11:39;;;;;;;14.43;12.95;;;;;;;16.25;99.79;101732.75;2098585;28;20530;-61
2021/08/23 02:12:39;;;;;;;17.27;15.57;;;;;;;16.24;99.52;101725.78;2099004;28;20033;-62
2021/08/23 02:13:39;;;;;;;15.17;13.87;;;;;;;16.22;99.79;101733.78;2107832;28;20103;-61
2021/08/23 02:14:41;;;;;;;;;;;;;;;16.21;99.55;101727.66;2108319;28;20052;-61
2021/08/23 02:15:41;;;;;;;16.97;14.03;;;;;;;16.22;99.66;101737.25;2107868;28;19954;-61
2021/08/23 02:16:41;;;;;;;13.87;12.50;;;;;;;16.22;99.86;101739.88;2107866;28;20055;-61
2021/08/23 02:17:41;;;;;;;18.90;15.37;;;;;;;16.21;99.78;101738.19;2107788;28;20102;-60
2021/08/23 02:18:42;;;;;;;15.60;14.13;;;;;;;16.21;99.74;101738.19;2107807;28;20378;-62
2021/08/23 02:19:42;;;;;;;17.67;15.87;;;;;;;16.19;99.44;101745.31;2107845;28;20032;-60
2021/08/23 02:20:42;;;;;;;18.07;16.37;;;;;;;16.18;99.78;101743.59;2107886;28;20036;-61
2021/08/23 02:21:51;;;;;;;18.57;16.37;;;;;;;16.18;99.60;101743.59;2107799;28;20035;-61
2021/08/23 02:22:51;;;;;;;17.40;15.60;;;;;;;16.19;99.72;101745.31;2107763;28;20032;-61
2021/08/23 02:23:52;;;;;;;17.47;15.67;;;;;;;16.20;99.58;101751.44;2107635;28;20043;-61
2021/08/23 02:24:52;;;;;;;17.97;16.10;;;;;;;16.18;99.66;101754.13;2107888;28;20019;-61
2021/08/23 02:25:54;;;;;;;18.20;16.37;;;;;;;16.18;99.39;101745.41;2107818;28;20017;-61
2021/08/23 02:26:54;;;;;;;17.17;15.32;;;;;;;16.18;99.38;101748.88;2107689;28;20066;-61
2021/08/23 02:27:55;;;;;;;18.13;16.40;;;;;;;16.17;99.79;101752.44;2107860;28;20424;-61
2021/08/23 02:28:55;;;;;;;16.23;14.73;;;;;;;16.19;99.49;101757.63;2107784;28;20024;-61
2021/08/23 02:29:55;;;;;;;18.17;16.23;;;;;;;16.16;99.68;101755.16;2107803;28;20051;-61
2021/08/23 02:30:56;;;;;;;18.07;16.27;;;;;;;16.15;99.27;101756.91;2107748;28;20149;-62
2021/08/23 02:31:56;;;;;;;18.08;16.27;;;;;;;16.16;99.62;101761.28;2107671;28;20055;-62
2021/08/23 02:32:56;;;;;;;19.05;17.20;;;;;;;16.15;99.25;101767.47;2098696;28;20068;-61
2021/08/23 02:33:57;;;;;;;17.83;16.20;;;;;;;16.16;99.74;101774.44;2098506;28;20033;-61
2021/08/23 02:34:57;;;;;;;19.17;17.27;;;;;;;16.16;99.50;101771.81;2098834;28;20036;-62
2021/08/23 02:35:57;;;;;;;19.33;17.33;;;;;;;16.15;99.68;101770.09;2107760;28;20032;-60
2021/08/23 02:36:57;;;;;;;19.63;17.63;;;;;;;16.16;99.44;101777.09;2107699;28;20397;-61
2021/08/23 02:37:58;;;;;;;20.73;18.73;;;;;;;16.16;99.64;101776.22;2107763;28;20102;-61
2021/08/23 02:38:58;;;;;;;21.17;18.37;;;;;;;16.16;99.68;101776.22;2107649;28;20028;-61
2021/08/23 02:39:58;;;;;;;18.70;16.90;;;;;;;16.16;99.59;101782.34;2107603;28;20097;-61
2021/08/23 02:40:58;;;;;;;20.63;18.47;;;;;;;16.17;99.89;101778.78;2107700;28;20055;-61
2021/08/23 02:41:59;;;;;;;19.07;16.97;;;;;;;16.16;99.85;101782.34;2107627;28;20032;-60
2021/08/23 02:42:59;;;;;;;19.93;18.07;;;;;;;16.16;99.71;101779.72;2107681;28;20028;-62
2021/08/23 02:44:00;;;;;;;20.33;18.37;;;;;;;16.16;99.58;101777.09;2107636;28;20082;-62
2021/08/23 02:45:00;;;;;;;19.88;18.05;;;;;;;16.17;99.51;101777.91;2107609;28;20078;-61
2021/08/23 02:46:00;;;;;;;23.87;21.47;;;;;;;16.15;99.34;101775.34;2107594;28;20024;-61
2021/08/23 02:47:00;;;;;;;24.80;19.33;;;;;;;16.15;99.51;101780.63;2107615;28;20362;-61
2021/08/23 02:48:01;;;;;;;20.70;18.65;;;;;;;16.13;99.57;101779.88;2107560;28;20495;-61
2021/08/23 02:49:01;;;;;;;23.70;21.30;;;;;;;16.13;99.72;101777.22;2107574;28;20073;-61
2021/08/23 02:50:04;;;;;;;23.23;20.77;;;;;;;16.12;99.41;101786.06;2107586;28;20751;-60
2021/08/23 02:51:04;;;;;;;21.83;19.52;;;;;;;16.13;99.80;101782.50;2107641;28;20431;-61
2021/08/23 02:52:04;;;;;;;22.90;20.50;;;;;;;16.13;99.80;101779.88;2107530;28;20028;-62
2021/08/23 02:53:05;;;;;;;21.88;19.58;;;;;;;16.13;99.74;101787.75;2107481;28;20047;-62
2021/08/23 02:54:05;;;;;;;22.37;19.23;;;;;;;16.13;99.54;101793.03;2107527;28;20020;-61
2021/08/23 02:55:06;;;;;;;22.97;20.70;;;;;;;16.14;99.56;101788.59;2107564;28;20078;-61
2021/08/23 02:56:06;;;;;;;;;;;;;;;16.13;99.56;101790.41;2107922;28;20031;-60
2021/08/23 02:57:06;;;;;;;23.02;20.05;;;;;;;16.13;99.41;101793.03;2107607;28;19908;-61
2021/08/23 02:58:08;;;;;;;22.60;19.70;;;;;;;16.14;99.65;101796.50;2098479;28;20024;-61
2021/08/23 02:59:08;;;;;;;23.50;21.00;;;;;;;16.12;99.71;101799.22;2098735;28;20027;-60
2021/08/23 03:00:10;;;;;;;25.77;23.30;;;;;;;16.09;99.28;101786.22;2107400;28;20031;-61
2021/08/23 03:01:10;;;;;;;;;;;;;;;16.09;99.73;101794.13;2107961;28;20024;-61
2021/08/23 03:02:10;;;;;;;21.40;19.37;;;;;;;16.09;99.77;101799.38;2098434;28;19915;-61
2021/08/23 03:03:10;;;;;;;24.03;21.60;;;;;;;16.07;99.05;101795.97;2098510;28;20031;-60
2021/08/23 03:04:10;;;;;;;23.83;21.53;;;;;;;16.05;99.58;101793.41;2107387;28;20051;-60
2021/08/23 03:05:11;;;;;;;23.53;21.27;;;;;;;16.04;99.55;101789.06;2107444;28;20106;-61
2021/08/23 03:06:12;;;;;;;24.47;21.97;;;;;;;16.03;99.62;101797.03;2107627;28;20076;-61
2021/08/23 03:07:12;;;;;;;23.90;21.30;;;;;;;16.02;99.55;101795.34;2107444;28;20081;-61
2021/08/23 03:08:12;;;;;;;24.02;21.67;;;;;;;16.00;99.35;101791.94;2107341;28;20578;-61
2021/08/23 03:09:13;;;;;;;23.93;21.57;;;;;;;15.98;99.57;101799.06;2107494;28;20081;-61
2021/08/23 03:10:13;;;;;;;25.13;22.47;;;;;;;15.99;99.58;101808.66;2107308;28;20031;-61
2021/08/23 03:11:14;;;;;;;23.20;21.00;;;;;;;15.96;99.60;101802.63;2098364;28;20059;-61
2021/08/23 03:12:16;;;;;;;25.45;22.73;;;;;;;15.94;99.29;101804.44;2098293;28;20128;-61
2021/08/23 03:13:16;;;;;;;22.50;20.20;;;;;;;15.94;99.87;101807.09;2107412;28;20035;-61
2021/08/23 03:14:17;;;;;;;22.23;19.93;;;;;;;15.93;99.46;101808.03;2107377;28;20465;-61
2021/08/23 03:15:17;;;;;;;22.77;20.52;;;;;;;15.92;99.74;101803.69;2107416;28;20472;-61
2021/08/23 03:16:17;;;;;;;24.50;22.10;;;;;;;15.92;99.78;101808.97;2106650;28;20016;-61
2021/08/23 03:17:17;;;;;;;24.33;21.83;;;;;;;15.91;99.87;101809.84;2107445;28;20024;-61
2021/08/23 03:18:18;;;;;;;23.47;21.17;;;;;;;15.91;99.70;101807.22;2107316;28;20024;-61
2021/08/23 03:19:18;;;;;;;22.83;20.63;;;;;;;15.91;99.39;101811.66;2107414;28;20031;-61
2021/08/23 03:20:18;;;;;;;21.83;19.70;;;;;;;15.93;99.56;101809.78;2107254;28;20047;-61
2021/08/23 03:21:18;;;;;;;22.40;20.40;;;;;;;15.91;99.68;101809.84;2098421;28;20028;-61
2021/08/23 03:22:19;;;;;;;22.80;20.40;;;;;;;15.91;99.51;101815.13;2098149;28;20025;-61
2021/08/23 03:23:19;;;;;;;24.40;21.53;;;;;;;15.90;99.56;101816.06;2106775;28;20056;-61
2021/08/23 03:24:19;;;;;;;23.00;20.63;;;;;;;15.91;99.45;101824.81;2107383;28;20095;-61
2021/08/23 03:25:20;;;;;;;24.00;21.40;;;;;;;15.90;99.63;101823.09;2107319;28;20027;-60
2021/08/23 03:26:21;;;;;;;23.58;21.20;;;;;;;15.89;99.37;101816.13;2107276;28;20027;-60
2021/08/23 03:27:21;;;;;;;23.52;20.52;;;;;;;15.90;99.46;101825.72;2107315;28;20453;-61
2021/08/23 03:28:21;;;;;;;24.60;21.33;;;;;;;15.89;99.35;101822.25;2098122;28;20050;-61
2021/08/23 03:29:22;;;;;;;23.90;21.67;;;;;;;15.90;99.37;101823.97;2098304;28;20062;-61
2021/08/23 03:30:22;;;;;;;23.80;21.40;;;;;;;15.88;99.43;101828.44;2107241;28;20020;-61
2021/08/23 03:31:22;;;;;;;22.60;20.30;;;;;;;15.88;99.72;101830.22;2098227;28;20455;-60
2021/08/23 03:32:22;;;;;;;21.97;19.73;;;;;;;15.87;99.54;101829.38;2098203;28;20036;-61
2021/08/23 03:33:23;;;;;;;22.83;19.93;;;;;;;15.88;99.73;101831.06;2106975;28;20020;-61
2021/08/23 03:34:23;;;;;;;24.43;21.97;;;;;;;15.88;99.50;101835.50;2107180;28;20024;-61
2021/08/23 03:35:23;;;;;;;24.00;21.70;;;;;;;15.87;99.75;101837.25;2107183;28;20027;-61
2021/08/23 03:36:24;;;;;;;26.07;23.23;;;;;;;15.88;99.78;101838.97;2107045;28;20024;-61
2021/08/23 03:37:24;;;;;;;22.70;20.43;;;;;;;15.87;99.69;101839.91;2098171;28;20019;-60
2021/08/23 03:38:25;;;;;;;23.38;20.77;;;;;;;15.88;99.38;101840.75;2098237;28;20028;-61
2021/08/23 03:39:25;;;;;;;23.63;21.38;;;;;;;15.86;99.72;101843.47;2107249;28;20040;-60
2021/08/23 03:40:25;;;;;;;23.77;21.37;;;;;;;15.87;99.60;101847.78;2098068;28;20040;-61
2021/08/23 03:41:25;;;;;;;23.77;21.33;;;;;;;15.87;99.52;101844.31;2098253;28;20032;-62
2021/08/23 03:42:26;;;;;;;22.60;20.10;;;;;;;15.88;99.43;101854.75;2107084;28;20340;-62
2021/08/23 03:43:26;;;;;;;27.47;22.30;;;;;;;15.88;99.60;101846.03;2107181;28;20024;-62
2021/08/23 03:44:26;;;;;;;24.57;21.83;;;;;;;15.87;99.85;101846.97;2107203;28;20081;-62
2021/08/23 03:45:27;;;;;;;23.47;20.93;;;;;;;15.87;99.75;101845.16;2107119;28;20028;-62
2021/08/23 03:46:33;;;;;;;25.80;23.33;;;;;;;15.87;99.63;101855.69;2107038;28;20055;-62
2021/08/23 03:47:34;;;;;;;24.40;21.83;;;;;;;15.86;99.90;101848.72;2107124;28;20504;-60
2021/08/23 03:48:34;;;;;;;24.93;22.27;;;;;;;15.85;99.53;101854.94;2107162;28;20035;-61
2021/08/23 03:49:34;;;;;;;20.90;18.73;;;;;;;15.85;99.78;101857.56;2107189;28;20447;-61
2021/08/23 03:50:35;;;;;;;24.77;22.10;;;;;;;15.83;99.53;101857.63;2107112;28;20548;-61
2021/08/23 03:51:35;;;;;;;25.37;22.93;;;;;;;15.82;99.56;101863.81;2107163;28;20040;-61
2021/08/23 03:52:35;;;;;;;26.60;20.20;;;;;;;15.82;99.55;101860.34;2098017;28;20028;-60
2021/08/23 03:53:35;;;;;;;25.43;22.63;;;;;;;15.80;99.88;101859.53;2098122;28;20036;-61
2021/08/23 03:54:35;;;;;;;25.17;22.57;;;;;;;15.79;99.59;101858.72;2107037;28;20039;-60
2021/08/23 03:55:36;;;;;;;24.87;22.40;;;;;;;15.79;99.73;101866.59;2107118;28;20488;-61
2021/08/23 03:56:36;;;;;;;26.00;23.27;;;;;;;15.77;99.60;101871.06;2107060;28;20397;-61
2021/08/23 03:57:37;;;;;;;25.40;22.20;;;;;;;15.77;99.88;101870.25;2097907;28;20552;-61
2021/08/23 03:58:37;;;;;;;26.08;23.58;;;;;;;15.76;99.76;101869.38;2098021;28;20034;-61
2021/08/23 03:59:37;;;;;;;25.70;22.93;;;;;;;15.78;99.44;101877.19;2107042;28;20116;-61
2021/08/23 04:00:37;;;;;;;23.37;20.97;;;;;;;15.78;99.93;101874.56;2107065;28;20028;-62
2021/08/23 04:01:38;;;;;;;28.87;25.87;;;;;;;15.74;99.51;101878.28;2107043;28;20024;-60
2021/08/23 04:02:38;;;;;;;25.13;21.93;;;;;;;15.73;99.81;101876.59;2107051;28;20492;-60
2021/08/23 04:03:39;;;;;;;23.50;20.90;;;;;;;15.74;99.65;101878.28;2106922;28;20016;-62
2021/08/23 04:04:39;;;;;;;25.42;21.20;;;;;;;15.75;99.83;101882.59;2107006;28;20028;-61
2021/08/23 04:05:39;;;;;;;22.83;20.33;;;;;;;15.75;99.68;101878.22;2107073;28;20032;-61
2021/08/23 04:06:44;;;;;;;24.23;21.63;;;;;;;15.75;99.63;101883.47;2107010;28;20092;-61
2021/08/23 04:07:45;;;;;;;25.92;23.25;;;;;;;15.74;99.72;101880.91;2106979;28;20032;-62
2021/08/23 04:08:45;;;;;;;23.47;20.97;;;;;;;15.76;99.61;101884.31;2107037;28;20499;-61
2021/08/23 04:09:45;;;;;;;24.40;22.10;;;;;;;15.76;99.75;101885.16;2106945;28;20484;-62
2021/08/23 04:10:47;;;;;;;23.43;21.07;;;;;;;15.75;99.90;101880.84;2106888;28;20477;-60
2021/08/23 04:11:47;;;;;;;23.13;20.85;;;;;;;15.76;99.52;101887.78;2106716;28;20020;-61
2021/08/23 04:12:47;;;;;;;25.03;20.67;;;;;;;15.74;99.71;101887.00;2107000;28;20035;-62
2021/08/23 04:13:48;;;;;;;24.43;21.90;;;;;;;15.75;99.64;101895.75;2106903;28;20337;-61
2021/08/23 04:14:48;;;;;;;24.37;21.77;;;;;;;15.73;99.82;101893.19;2106979;28;20036;-62
2021/08/23 04:15:49;;;;;;;22.50;20.20;;;;;;;15.74;99.74;101886.16;2106912;28;20105;-61
2021/08/23 04:16:49;;;;;;;26.33;23.83;;;;;;;15.75;99.67;101898.41;2106957;28;20032;-61
2021/08/23 04:17:49;;;;;;;24.33;22.00;;;;;;;15.75;99.80;101899.25;2097862;28;20106;-61
2021/08/23 04:18:49;;;;;;;24.53;21.80;;;;;;;15.73;99.65;101887.09;2097989;28;20056;-61
2021/08/23 04:19:50;;;;;;;24.53;20.57;;;;;;;15.74;99.69;101896.69;2106846;28;20024;-62
2021/08/23 04:20:50;;;;;;;23.53;20.97;;;;;;;15.72;99.76;101894.13;2106987;28;20032;-61
2021/08/23 04:21:50;;;;;;;24.50;21.67;;;;;;;15.74;99.92;101899.31;2097883;28;20564;-61
2021/08/23 04:22:50;;;;;;;24.20;20.80;;;;;;;15.73;99.61;101901.09;2097867;28;20024;-61
2021/08/23 04:23:51;;;;;;;26.30;23.70;;;;;;;15.71;99.72;101893.28;2106775;28;20038;-62
2021/08/23 04:24:51;;;;;;;23.13;20.80;;;;;;;15.72;99.81;101899.41;2106896;28;20030;-61
2021/08/23 04:25:51;;;;;;;22.97;20.57;;;;;;;15.71;99.54;101903.78;2106888;28;20039;-61
2021/08/23 04:26:52;;;;;;;24.90;22.27;;;;;;;15.71;99.36;101903.78;2106982;28;20055;-62
2021/08/23 04:27:52;;;;;;;30.00;23.83;;;;;;;15.71;100.00;101905.59;2106310;28;20052;-61
2021/08/23 04:28:52;;;;;;;24.97;22.57;;;;;;;15.69;99.57;101905.66;2106542;28;20035;-61
2021/08/23 04:29:52;;;;;;;26.57;22.50;;;;;;;15.68;99.58;101908.38;2106905;28;20483;-61
2021/08/23 04:30:52;;;;;;;23.30;20.80;;;;;;;15.69;99.79;101910.94;2097859;28;20059;-62
2021/08/23 04:31:53;;;;;;;26.30;22.47;;;;;;;15.68;99.90;101911.81;2089474;28;20029;-61
2021/08/23 04:32:53;;;;;;;25.40;22.77;;;;;;;15.69;99.95;101910.06;2097841;28;20036;-61
2021/08/23 04:33:53;;;;;;;23.13;20.83;;;;;;;15.67;99.76;101918.03;2097586;28;20116;-61
2021/08/23 04:34:53;;;;;;;22.10;19.73;;;;;;;15.68;99.95;101914.47;2097807;28;20155;-62
2021/08/23 04:35:54;;;;;;;22.33;19.30;;;;;;;15.67;99.61;101920.66;2106890;28;20034;-61
2021/08/23 04:36:57;;;;;;;25.13;22.55;;;;;;;15.68;99.90;101919.72;2106854;28;20426;-61
2021/08/23 04:37:57;;;;;;;24.73;22.10;;;;;;;15.67;99.77;101923.28;2106824;28;20023;-61
2021/08/23 04:38:57;;;;;;;24.43;20.93;;;;;;;15.66;99.53;101926.84;2106860;28;20028;-62